Time;durP1;ratioP1;P1;durP2;ratioP2;P2;SDS_P1;SDS_P2;PMS_P1;PMS_P2;Temp;Humidity;BMP_temperature;BMP_pressure;BME280_temperature;BME280_humidity;BME280_pressure;Samples;Min_cycle;Max_cycle;Signal;HPM_P1;HPM_P2
2021/01/13 00:00:22;;;;;;;6.18;1.40;;;;;;;3.07;100.00;100272.34;4914348;29;20123;-75
2021/01/13 00:02:49;;;;;;;9.13;1.60;;;;;;;2.96;100.00;100280.97;4904625;29;20055;-75
2021/01/13 00:05:18;;;;;;;4.70;1.25;;;;;;;2.97;100.00;100272.66;4913643;29;20040;-76
2021/01/13 00:07:44;;;;;;;6.05;1.88;;;;;;;2.91;100.00;100273.13;4911271;29;20092;-76
2021/01/13 00:10:11;;;;;;;2.70;1.80;;;;;;;2.87;100.00;100277.50;4907596;29;20031;-74
2021/01/13 00:12:38;;;;;;;4.05;2.00;;;;;;;2.88;100.00;100263.91;4906028;29;20042;-74
2021/01/13 00:15:08;;;;;;;7.13;2.13;;;;;;;3.01;100.00;100257.66;4914678;29;20058;-75
2021/01/13 00:17:34;;;;;;;6.18;2.25;;;;;;;2.80;100.00;100251.41;4912039;29;20036;-75
2021/01/13 00:19:59;;;;;;;4.88;2.17;;;;;;;2.85;100.00;100243.25;4891135;29;20031;-75
2021/01/13 00:22:25;;;;;;;5.78;2.28;;;;;;;2.99;100.00;100249.19;4902171;29;20055;-75
2021/01/13 00:24:54;;;;;;;7.68;2.75;;;;;;;3.01;100.00;100249.66;4925525;29;20040;-74
2021/01/13 00:27:21;;;;;;;7.28;2.83;;;;;;;2.95;100.00;100258.09;4911216;29;20164;-75
2021/01/13 00:29:51;;;;;;;11.20;3.08;;;;;;;3.04;100.00;100283.59;4911063;29;20383;-75
2021/01/13 00:32:16;;;;;;;9.27;3.92;;;;;;;3.06;100.00;100289.38;4906275;29;20042;-75
2021/01/13 00:34:42;;;;;;;13.23;3.88;;;;;;;3.09;100.00;100294.09;4908479;29;20154;-75
2021/01/13 00:37:08;;;;;;;13.02;3.60;;;;;;;3.21;100.00;100298.78;4912246;29;20036;-75
2021/01/13 00:39:34;;;;;;;8.23;2.35;;;;;;;3.19;100.00;100293.00;4905186;29;20421;-75
2021/01/13 00:42:01;;;;;;;6.05;2.08;;;;;;;3.15;100.00;100263.59;4925412;29;20044;-75
2021/01/13 00:44:27;;;;;;;9.15;3.08;;;;;;;3.14;100.00;100251.38;4899347;29;20531;-76
2021/01/13 00:46:52;;;;;;;4.35;2.22;;;;;;;3.17;100.00;100255.28;4891695;29;20059;-77
2021/01/13 00:49:17;;;;;;;7.65;2.60;;;;;;;3.23;100.00;100260.09;4904808;29;20039;-76
2021/01/13 00:51:43;;;;;;;6.50;2.13;;;;;;;3.16;100.00;100259.81;4908812;29;20104;-76
2021/01/13 00:54:11;;;;;;;8.50;2.40;;;;;;;3.23;100.00;100257.44;4910012;29;20434;-76
2021/01/13 00:56:42;;;;;;;4.53;2.03;;;;;;;3.20;100.00;100251.97;4910408;29;20039;-76
2021/01/13 00:59:10;;;;;;;9.60;2.28;;;;;;;3.13;100.00;100251.69;4910076;29;20024;-76
2021/01/13 01:01:37;;;;;;;8.13;2.40;;;;;;;3.12;100.00;100253.56;4922055;29;20028;-76
2021/01/13 01:04:04;;;;;;;10.40;2.10;;;;;;;3.16;100.00;100243.84;4893950;29;20056;-75
2021/01/13 01:06:29;;;;;;;6.00;1.80;;;;;;;3.21;100.00;100245.59;4912091;29;20047;-75
2021/01/13 01:08:55;;;;;;;12.65;2.33;;;;;;;3.04;100.00;100240.28;4917622;29;20028;-75
2021/01/13 01:11:22;;;;;;;11.65;2.33;;;;;;;2.99;100.00;100238.56;4914020;29;20565;-75
2021/01/13 01:13:48;;;;;;;7.55;2.38;;;;;;;2.97;100.00;100242.63;4906259;29;20040;-76
2021/01/13 01:16:16;;;;;;;7.43;2.40;;;;;;;2.90;100.00;100237.78;4903682;29;20060;-75
2021/01/13 01:18:42;;;;;;;12.63;2.78;;;;;;;2.93;100.00;100239.81;4913941;29;20521;-75
2021/01/13 01:21:08;;;;;;;10.88;2.25;;;;;;;2.92;100.00;100232.94;4915102;29;20486;-74
2021/01/13 01:23:35;;;;;;;8.60;2.63;;;;;;;2.93;100.00;100241.69;4897199;29;20024;-76
2021/01/13 01:26:02;;;;;;;9.02;2.47;;;;;;;2.87;100.00;100254.34;4923499;29;20035;-75
2021/01/13 01:28:27;;;;;;;9.70;2.03;;;;;;;2.80;100.00;100256.72;4913858;29;20091;-75
2021/01/13 01:30:53;;;;;;;10.15;1.95;;;;;;;2.87;100.00;100258.88;4924707;29;20036;-75
2021/01/13 01:33:18;;;;;;;14.00;2.00;;;;;;;2.85;100.00;100240.59;4898651;29;20038;-75
2021/01/13 01:35:44;;;;;;;12.95;1.40;;;;;;;2.95;100.00;100269.53;4913561;29;20040;-75
2021/01/13 01:38:09;;;;;;;9.60;1.60;;;;;;;3.06;100.00;100289.38;4910857;29;20035;-76
2021/01/13 01:40:38;;;;;;;9.25;1.50;;;;;;;3.09;100.00;100291.44;4913242;29;20060;-76
2021/01/13 01:43:04;;;;;;;11.55;1.30;;;;;;;3.00;100.00;100277.34;4912752;29;20051;-75
2021/01/13 01:45:31;;;;;;;5.03;1.13;;;;;;;3.01;100.00;100278.91;4912428;29;20407;-75
2021/01/13 01:48:00;;;;;;;5.85;1.20;;;;;;;2.94;100.00;100275.97;4916769;29;20039;-75
2021/01/13 01:50:36;;;;;;;10.15;1.45;;;;;;;2.97;100.00;100282.50;4909785;29;20137;-75
2021/01/13 01:53:11;;;;;;;9.40;1.55;;;;;;;3.07;100.00;100272.34;4913712;29;20044;-76
2021/01/13 01:56:00;;;;;;;4.78;0.82;;;;;;;3.03;100.00;100260.78;4911182;29;20039;-75
2021/01/13 01:58:30;;;;;;;8.10;1.38;;;;;;;2.93;100.00;100261.09;4914779;29;20450;-74
2021/01/13 02:00:58;;;;;;;5.70;1.08;;;;;;;3.00;100.00;100261.38;4911489;29;20524;-76
2021/01/13 02:03:28;;;;;;;4.53;1.00;;;;;;;3.09;100.00;100274.69;4920588;29;20044;-75
2021/01/13 02:06:02;;;;;;;3.13;0.90;;;;;;;2.94;100.00;100272.50;4924299;29;20036;-75
2021/01/13 02:08:35;;;;;;;5.95;1.10;;;;;;;3.03;100.00;100252.78;4911917;29;20032;-74
2021/01/13 02:11:01;;;;;;;6.63;1.13;;;;;;;3.10;100.00;100255.75;4911687;29;20493;-75
2021/01/13 02:13:26;;;;;;;5.32;1.10;;;;;;;3.03;100.00;100252.00;4912660;29;20036;-76
2021/01/13 02:15:52;;;;;;;5.72;1.45;;;;;;;3.11;100.00;100249.34;4902916;29;20045;-75
2021/01/13 02:18:22;;;;;;;6.82;1.08;;;;;;;3.06;100.00;100246.84;4919728;29;20032;-74
2021/01/13 02:20:52;;;;;;;8.07;1.05;;;;;;;2.97;100.00;100251.38;4916805;29;20035;-75
2021/01/13 02:23:47;;;;;;;10.90;1.23;;;;;;;3.17;100.00;100256.06;4918279;29;20452;-75
2021/01/13 02:26:43;;;;;;;7.72;1.13;;;;;;;3.09;100.00;100248.88;4919572;29;20180;-75
2021/01/13 02:29:09;;;;;;;5.13;1.13;;;;;;;3.15;100.00;100254.81;4900257;29;20032;-76
2021/01/13 02:31:38;;;;;;;5.93;1.02;;;;;;;3.00;100.00;100250.75;4911352;29;20099;-74
2021/01/13 02:34:22;;;;;;;5.60;1.00;;;;;;;3.02;100.00;100267.19;4906839;29;20040;-75
2021/01/13 02:37:14;;;;;;;7.05;1.00;;;;;;;3.12;100.00;100260.75;4912513;29;20040;-75
2021/01/13 02:39:43;;;;;;;4.43;1.13;;;;;;;3.02;100.00;100259.19;4893162;29;20131;-74
2021/01/13 02:42:21;;;;;;;8.73;1.13;;;;;;;2.89;100.00;100260.16;4909784;29;20036;-75
2021/01/13 02:45:19;;;;;;;10.48;1.40;;;;;;;2.97;100.00;100240.75;4897938;29;20468;-76
2021/01/13 02:47:56;;;;;;;5.95;1.70;;;;;;;2.96;100.00;100255.13;4907044;29;20425;-76
2021/01/13 02:50:24;;;;;;;11.00;1.33;;;;;;;2.97;100.00;100271.88;4912182;29;20655;-75
2021/01/13 02:53:31;;;;;;;8.02;1.02;;;;;;;3.14;100.00;100293.13;4900557;29;20047;-75
2021/01/13 02:55:56;;;;;;;9.15;1.25;;;;;;;3.01;100.00;100284.25;4911656;29;20475;-75
2021/01/13 02:58:38;;;;;;;11.77;1.25;;;;;;;3.06;100.00;100238.84;4910575;29;20067;-75
2021/01/13 03:01:09;;;;;;;12.90;1.50;;;;;;;3.11;100.00;100251.22;4911356;29;20569;-76
2021/01/13 03:03:36;;;;;;;9.37;1.87;;;;;;;3.03;100.00;100260.78;4911171;29;20032;-75
2021/01/13 03:06:09;;;;;;;9.38;1.33;;;;;;;3.10;100.00;100253.09;4919691;29;20031;-75
2021/01/13 03:08:43;;;;;;;8.90;1.10;;;;;;;3.13;100.00;100246.38;4898391;29;20518;-76
2021/01/13 03:11:12;;;;;;;10.32;1.33;;;;;;;3.03;100.00;100244.81;4919648;29;20781;-76
2021/01/13 03:13:43;;;;;;;6.10;1.63;;;;;;;2.92;100.00;100226.84;4922919;29;20032;-75
2021/01/13 03:16:13;;;;;;;11.40;1.88;;;;;;;2.94;100.00;100238.72;4911935;29;20502;-75
2021/01/13 03:18:57;;;;;;;6.03;1.42;;;;;;;2.96;100.00;100239.19;4921658;29;20028;-75
2021/01/13 03:21:28;;;;;;;4.72;1.30;;;;;;;3.02;100.00;100239.81;4910672;29;20063;-75
2021/01/13 03:24:13;;;;;;;10.90;1.35;;;;;;;3.02;100.00;100242.47;4912223;29;20032;-74
2021/01/13 03:26:52;;;;;;;6.25;1.02;;;;;;;3.02;100.00;100232.59;4906198;29;20040;-76
2021/01/13 03:29:22;;;;;;;7.40;1.50;;;;;;;3.12;100.00;100228.84;4916301;29;20039;-76
2021/01/13 03:32:05;;;;;;;17.08;2.13;;;;;;;3.05;100.00;100233.88;4913035;29;20037;-75
2021/01/13 03:34:34;;;;;;;8.38;1.35;;;;;;;3.04;100.00;100237.63;4916235;29;20048;-76
2021/01/13 03:37:07;;;;;;;8.15;1.40;;;;;;;3.07;100.00;100250.28;4922604;29;20481;-75
2021/01/13 03:39:37;;;;;;;13.82;1.77;;;;;;;2.99;100.00;100254.53;4901620;29;20043;-75
2021/01/13 03:42:10;;;;;;;5.93;1.20;;;;;;;3.02;100.00;100253.13;4909528;29;20044;-76
2021/01/13 03:44:39;;;;;;;8.98;1.50;;;;;;;3.04;100.00;100256.25;4913160;29;20036;-75
2021/01/13 03:47:17;;;;;;;9.05;1.30;;;;;;;3.05;100.00;100239.97;4914151;29;20092;-76
2021/01/13 03:49:52;;;;;;;15.65;1.35;;;;;;;3.04;100.00;100241.06;4930310;29;20036;-76
2021/01/13 03:52:18;;;;;;;11.00;1.50;;;;;;;3.04;100.00;100251.69;4908106;29;20067;-76
2021/01/13 03:54:44;;;;;;;9.50;1.25;;;;;;;3.09;100.00;100248.88;4909098;29;20076;-76
2021/01/13 03:57:10;;;;;;;7.32;1.27;;;;;;;2.95;100.00;100231.53;4915426;29;20040;-75
2021/01/13 04:00:06;;;;;;;12.13;1.73;;;;;;;3.13;100.00;100239.19;4909396;29;20036;-76
2021/01/13 04:02:50;;;;;;;12.68;1.48;;;;;;;3.08;100.00;100228.69;4920863;29;20501;-74
2021/01/13 04:05:30;;;;;;;9.23;1.45;;;;;;;3.06;100.00;100216.81;4913929;29;20059;-76
2021/01/13 04:07:56;;;;;;;11.60;2.13;;;;;;;3.00;100.00;100216.19;4913117;29;20043;-76
2021/01/13 04:10:23;;;;;;;9.80;2.10;;;;;;;2.91;100.00;100220.72;4914069;29;20489;-75
2021/01/13 04:13:07;;;;;;;8.02;1.77;;;;;;;2.93;100.00;100252.31;4916951;29;20039;-75
2021/01/13 04:15:38;;;;;;;11.73;1.40;;;;;;;2.99;100.00;100254.53;4911216;29;20179;-76
2021/01/13 04:18:08;;;;;;;13.63;1.73;;;;;;;2.92;100.00;100246.25;4906000;29;20580;-75
2021/01/13 04:20:34;;;;;;;6.43;1.40;;;;;;;3.02;100.00;100245.13;4909693;29;20091;-75
2021/01/13 04:23:00;;;;;;;13.95;1.77;;;;;;;2.98;100.00;100252.94;4911995;29;20032;-76
2021/01/13 04:25:26;;;;;;;5.85;1.58;;;;;;;3.02;100.00;100229.19;4912195;29;20020;-76
2021/01/13 04:27:52;;;;;;;9.75;1.60;;;;;;;2.93;100.00;100241.69;4914509;29;20035;-76
2021/01/13 04:30:18;;;;;;;9.13;1.65;;;;;;;2.90;100.00;100239.66;4915919;29;20035;-76
2021/01/13 04:32:44;;;;;;;8.43;1.63;;;;;;;2.83;100.00;100228.72;4913372;29;20040;-75
2021/01/13 04:35:10;;;;;;;10.00;1.90;;;;;;;2.75;100.00;100223.09;4914842;29;20035;-76
2021/01/13 04:37:39;;;;;;;6.15;2.00;;;;;;;2.78;100.00;100226.22;4908722;29;20099;-75
2021/01/13 04:40:23;;;;;;;8.00;1.90;;;;;;;2.83;100.00;100228.72;4920645;29;20040;-75
2021/01/13 04:43:03;;;;;;;10.70;1.80;;;;;;;2.81;100.00;100229.03;4914540;29;20044;-75
2021/01/13 04:45:43;;;;;;;7.30;1.80;;;;;;;2.88;100.00;100224.03;4904087;29;20035;-75
2021/01/13 04:48:14;;;;;;;10.38;1.90;;;;;;;2.79;100.00;100227.78;4914848;29;20035;-76
2021/01/13 04:50:51;;;;;;;6.93;1.58;;;;;;;2.73;100.00;100224.47;4890004;29;20040;-76
2021/01/13 04:53:19;;;;;;;1.20;1.10;;;;;;;2.67;100.00;100228.41;4894401;29;20028;-74
2021/01/13 04:55:54;;;;;;;2.92;1.27;;;;;;;2.68;100.00;100209.50;4896369;29;20486;-75
2021/01/13 04:58:41;;;;;;;2.40;1.35;;;;;;;2.72;100.00;100191.03;4912219;29;20035;-76
2021/01/13 05:01:26;;;;;;;4.63;1.85;;;;;;;2.61;100.00;100195.88;4906180;29;20048;-77
2021/01/13 05:04:20;;;;;;;5.53;2.53;;;;;;;2.62;100.00;100186.81;4916022;29;20044;-78
2021/01/13 05:07:05;;;;;;;9.00;4.00;;;;;;;2.62;100.00;100178.84;4914008;29;20036;-77
2021/01/13 05:09:41;;;;;;;18.00;6.18;;;;;;;2.64;100.00;100179.31;4906293;29;20130;-75
2021/01/13 05:12:08;;;;;;;19.92;7.78;;;;;;;2.65;100.00;100174.81;4918966;29;20181;-77
2021/01/13 05:14:43;;;;;;;48.35;15.65;;;;;;;2.64;100.00;100175.88;4921940;29;20054;-75
2021/01/13 05:17:33;;;;;;;54.65;18.00;;;;;;;2.64;100.00;100165.25;4907873;29;20032;-75
2021/01/13 05:19:59;;;;;;;42.58;13.25;;;;;;;2.73;100.00;100172.13;4923041;29;20039;-75
2021/01/13 05:22:25;;;;;;;30.17;10.15;;;;;;;2.73;100.00;100164.16;4918484;29;20036;-76
2021/01/13 05:24:52;;;;;;;29.77;11.05;;;;;;;2.63;100.00;100161.81;4924507;29;20401;-76
2021/01/13 05:27:30;;;;;;;17.83;5.80;;;;;;;2.60;100.00;100178.38;4917505;29;21155;-75
2021/01/13 05:30:00;;;;;;;11.55;4.53;;;;;;;2.66;100.00;100160.41;4916237;29;20135;-76
2021/01/13 05:32:33;;;;;;;19.80;7.05;;;;;;;2.74;100.00;100172.91;4916801;29;20035;-76
2021/01/13 05:35:03;;;;;;;25.40;10.93;;;;;;;2.85;100.00;100174.13;4926459;29;20028;-76
2021/01/13 05:38:02;;;;;;;36.50;14.25;;;;;;;2.92;100.00;100174.47;4914560;29;20024;-75
2021/01/13 05:40:28;;;;;;;44.28;20.75;;;;;;;2.98;100.00;100177.72;4917970;29;20040;-75
2021/01/13 05:42:57;;;;;;;51.80;20.13;;;;;;;2.94;100.00;100179.47;4901082;29;20037;-76
2021/01/13 05:45:24;;;;;;;30.38;13.07;;;;;;;2.97;100.00;100176.16;4902082;29;20031;-75
2021/01/13 05:47:52;;;;;;;24.52;7.72;;;;;;;2.89;100.00;100182.25;4912526;29;20051;-76
2021/01/13 05:50:20;;;;;;;12.50;4.45;;;;;;;3.03;100.00;100188.19;4909394;29;20016;-77
2021/01/13 05:52:48;;;;;;;14.70;4.32;;;;;;;2.97;100.00;100189.44;4918712;29;20099;-77
2021/01/13 05:55:18;;;;;;;15.23;4.10;;;;;;;3.06;100.00;100180.34;4914206;29;20036;-76
2021/01/13 05:57:56;;;;;;;14.45;4.15;;;;;;;3.13;100.00;100186.00;4913093;29;20529;-77
2021/01/13 06:00:26;;;;;;;9.88;4.13;;;;;;;3.14;100.00;100176.91;4915686;29;20506;-76
2021/01/13 06:03:03;;;;;;;14.70;5.47;;;;;;;3.12;100.00;100179.09;4910072;29;20420;-76
2021/01/13 06:05:31;;;;;;;11.20;3.78;;;;;;;3.11;100.00;100171.44;4919668;29;20311;-76
2021/01/13 06:07:59;;;;;;;14.27;4.28;;;;;;;3.11;100.00;100176.75;4923516;29;20034;-76
2021/01/13 06:10:31;;;;;;;19.08;5.03;;;;;;;3.05;100.00;100165.50;4918304;29;20027;-76
2021/01/13 06:12:59;;;;;;;12.90;5.53;;;;;;;3.09;100.00;100171.75;4919669;29;20396;-76
2021/01/13 06:15:26;;;;;;;15.40;6.88;;;;;;;3.04;100.00;100163.94;4904962;29;20438;-76
2021/01/13 06:17:53;;;;;;;23.42;11.23;;;;;;;3.15;100.00;100175.81;4921055;29;20032;-76
2021/01/13 06:20:27;;;;;;;23.02;11.45;;;;;;;3.13;100.00;100175.34;4918675;29;20090;-76
2021/01/13 06:22:54;;;;;;;26.88;10.57;;;;;;;3.11;100.00;100174.88;4925234;29;21718;-76
2021/01/13 06:25:27;;;;;;;15.55;5.63;;;;;;;3.15;100.00;100170.50;4900631;29;20047;-77
2021/01/13 06:28:11;;;;;;;12.57;5.60;;;;;;;3.14;100.00;100173.44;4918012;29;20382;-77
2021/01/13 06:30:41;;;;;;;16.13;5.93;;;;;;;3.11;100.00;100174.88;4932234;29;20055;-77
2021/01/13 06:33:21;;;;;;;15.75;6.97;;;;;;;3.15;100.00;100164.38;4917656;29;20512;-75
2021/01/13 06:36:20;;;;;;;12.02;5.55;;;;;;;3.17;100.00;100170.19;4896535;29;20036;-75
2021/01/13 06:39:05;;;;;;;18.08;5.30;;;;;;;3.08;100.00;100178.16;4913829;29;20052;-77
2021/01/13 06:41:44;;;;;;;23.40;10.18;;;;;;;3.13;100.00;100172.69;4914620;29;20043;-76
2021/01/13 06:44:09;;;;;;;20.75;7.95;;;;;;;3.17;100.00;100162.97;4911991;29;20060;-77
2021/01/13 06:46:35;;;;;;;22.75;6.25;;;;;;;3.07;100.00;100168.63;4914996;29;20425;-77
2021/01/13 06:49:18;;;;;;;16.65;7.07;;;;;;;3.16;100.00;100164.06;4917288;29;20040;-76
2021/01/13 06:51:48;;;;;;;17.88;8.32;;;;;;;3.09;100.00;100174.41;4913640;29;20043;-76
2021/01/13 06:54:16;;;;;;;34.58;12.35;;;;;;;3.07;100.00;100165.97;4916441;29;20039;-75
2021/01/13 06:56:49;;;;;;;23.17;9.40;;;;;;;3.08;100.00;100177.41;4925509;29;20036;-76
2021/01/13 06:59:22;;;;;;;15.32;6.18;;;;;;;3.05;100.00;100178.00;4921466;29;20036;-76
2021/01/13 07:01:52;;;;;;;17.65;7.53;;;;;;;3.13;100.00;100167.38;4922662;29;20060;-77
2021/01/13 07:04:18;;;;;;;39.38;16.80;;;;;;;3.14;100.00;100168.91;4941242;29;20028;-75
2021/01/13 07:07:06;;;;;;;30.30;11.88;;;;;;;3.21;100.00;100166.56;4915235;29;20039;-76
2021/01/13 07:09:32;;;;;;;23.40;8.77;;;;;;;3.15;100.00;100159.84;4909749;29;20050;-76
2021/01/13 07:12:07;;;;;;;20.15;7.50;;;;;;;3.26;100.00;100161.06;4918607;29;20043;-75
2021/01/13 07:14:36;;;;;;;19.30;7.15;;;;;;;3.25;100.00;100172.78;4920143;29;20040;-76
2021/01/13 07:17:24;;;;;;;14.43;6.10;;;;;;;3.31;100.00;100149.47;4911267;29;20036;-75
2021/01/13 07:19:53;;;;;;;11.77;4.22;;;;;;;3.32;100.00;100172.31;4936886;29;20498;-75
2021/01/13 07:22:28;;;;;;;11.60;3.53;;;;;;;3.38;100.00;100171.03;4922658;29;20070;-75
2021/01/13 07:24:55;;;;;;;12.85;3.75;;;;;;;3.40;100.00;100161.66;4907375;29;20152;-77
2021/01/13 07:27:21;;;;;;;8.27;3.28;;;;;;;3.36;100.00;100167.91;4908481;29;20040;-76
2021/01/13 07:29:49;;;;;;;11.50;3.80;;;;;;;3.37;100.00;100161.50;4931413;29;20047;-76
2021/01/13 07:32:21;;;;;;;11.20;3.83;;;;;;;3.33;100.00;100174.66;4906217;29;20587;-77
2021/01/13 07:34:52;;;;;;;;;;;;;;;3.39;100.00;100192.00;4920067;29;20155;-76
2021/01/13 07:37:21;;;;;;;11.07;3.55;;;;;;;3.33;100.00;100172.00;4914793;29;20360;-75
2021/01/13 07:40:06;;;;;;;9.10;3.58;;;;;;;3.19;100.00;100183.94;4932880;28;20047;-76
2021/01/13 07:42:41;;;;;;;7.78;3.15;;;;;;;3.24;100.00;100175.78;4921204;29;20043;-77
2021/01/13 07:45:19;;;;;;;11.70;3.53;;;;;;;3.34;100.00;100181.53;4935636;29;20462;-75
2021/01/13 07:47:56;;;;;;;16.35;4.32;;;;;;;3.26;100.00;100169.06;4933532;28;20034;-76
2021/01/13 07:50:42;;;;;;;14.32;4.22;;;;;;;3.21;100.00;100177.22;4918165;28;20043;-75
2021/01/13 07:53:39;;;;;;;13.27;4.18;;;;;;;3.25;100.00;100178.13;4859425;29;20109;-76
2021/01/13 07:56:06;;;;;;;17.92;5.68;;;;;;;3.28;100.00;100177.50;4866069;29;20045;-76
2021/01/13 07:58:34;;;;;;;10.02;4.88;;;;;;;3.25;100.00;100178.13;4877577;29;20085;-76
2021/01/13 08:01:21;;;;;;;14.90;5.85;;;;;;;3.31;100.00;100176.09;4866033;29;20044;-76
2021/01/13 08:04:05;;;;;;;14.02;5.78;;;;;;;3.32;100.00;100161.66;4881110;29;20617;-77
2021/01/13 08:06:35;;;;;;;22.48;8.00;;;;;;;3.32;100.00;100149.16;4872935;29;20446;-77
2021/01/13 08:09:07;;;;;;;25.25;11.18;;;;;;;3.34;100.00;100154.94;4874971;29;20043;-76
2021/01/13 08:12:01;;;;;;;24.92;12.45;;;;;;;3.35;100.00;100156.50;4842180;29;20053;-76
2021/01/13 08:14:50;;;;;;;33.38;17.00;;;;;;;3.30;100.00;100148.69;4859065;29;20102;-77
2021/01/13 08:17:24;;;;;;;45.50;23.27;;;;;;;3.30;100.00;100148.69;4875501;29;20462;-77
2021/01/13 08:20:21;;;;;;;58.00;28.90;;;;;;;3.38;100.00;100149.75;4874050;29;20127;-76
2021/01/13 08:22:59;;;;;;;50.08;27.10;;;;;;;3.40;100.00;100136.91;4875022;29;20723;-76
2021/01/13 08:25:29;;;;;;;21.92;12.27;;;;;;;3.37;100.00;100132.22;4860652;29;20514;-76
2021/01/13 08:28:10;;;;;;;9.68;4.47;;;;;;;3.39;100.00;100122.81;4872991;29;20060;-77
2021/01/13 08:30:40;;;;;;;9.45;3.70;;;;;;;3.32;100.00;100127.88;4899377;29;20051;-77
2021/01/13 08:33:09;;;;;;;11.35;2.10;;;;;;;3.28;100.00;100126.16;4920776;29;20038;-76
2021/01/13 08:35:36;;;;;;;11.05;1.67;;;;;;;3.33;100.00;100132.09;4900920;29;20040;-77
2021/01/13 08:38:10;;;;;;;9.13;1.45;;;;;;;3.35;100.00;100121.13;4903639;29;20040;-76
2021/01/13 08:40:37;;;;;;;6.28;1.90;;;;;;;3.37;100.00;100114.38;4898888;29;20039;-76
2021/01/13 08:43:13;;;;;;;8.57;1.80;;;;;;;3.40;100.00;100115.63;4924819;29;20074;-76
2021/01/13 08:45:47;;;;;;;4.20;1.60;;;;;;;3.52;100.00;100113.84;4911574;29;20450;-76
2021/01/13 08:48:24;;;;;;;3.58;1.65;;;;;;;3.67;100.00;100109.88;4887737;29;20047;-77
2021/01/13 08:51:05;;;;;;;6.93;1.85;;;;;;;3.62;100.00;100115.34;4910085;29;20798;-76
2021/01/13 08:53:32;;;;;;;7.53;1.63;;;;;;;3.66;100.00;100117.06;4912957;29;20035;-76
2021/01/13 08:55:57;;;;;;;2.90;1.17;;;;;;;3.72;100.00;100111.56;4910778;29;20123;-76
2021/01/13 08:58:29;;;;;;;5.55;1.50;;;;;;;3.67;100.00;100101.88;4909605;29;20607;-77
2021/01/13 09:01:08;;;;;;;4.25;1.30;;;;;;;3.65;100.00;100101.41;4908875;29;20047;-76
2021/01/13 09:03:39;;;;;;;8.98;1.40;;;;;;;3.77;100.00;100114.03;4909276;29;20067;-76
2021/01/13 09:06:21;;;;;;;8.35;1.60;;;;;;;3.61;100.00;100113.81;4915858;29;20054;-76
2021/01/13 09:08:52;;;;;;;8.27;1.50;;;;;;;3.68;100.00;100114.84;4930089;29;20045;-75
2021/01/13 09:11:35;;;;;;;4.30;1.35;;;;;;;3.71;100.00;100110.78;4910159;29;20056;-76
2021/01/13 09:14:21;;;;;;;5.22;1.33;;;;;;;3.72;100.00;100108.91;4925072;29;20041;-77
2021/01/13 09:16:51;;;;;;;3.67;1.25;;;;;;;3.68;100.00;100108.75;4916541;29;20425;-76
2021/01/13 09:19:38;;;;;;;5.32;1.50;;;;;;;3.63;100.00;100112.38;4921858;29;20179;-76
2021/01/13 09:22:09;;;;;;;6.68;1.90;;;;;;;3.68;100.00;100101.53;4925499;29;20043;-76
2021/01/13 09:24:34;;;;;;;8.85;1.80;;;;;;;3.73;100.00;100102.47;4911813;29;20036;-75
2021/01/13 09:27:03;;;;;;;7.57;2.38;;;;;;;3.75;100.00;100108.25;4912701;29;20978;-77
2021/01/13 09:29:49;;;;;;;6.97;1.52;;;;;;;3.84;100.00;100108.97;4913109;29;20111;-78
2021/01/13 09:32:16;;;;;;;12.70;1.77;;;;;;;3.91;100.00;100091.38;4917078;29;20397;-77
2021/01/13 09:34:43;;;;;;;14.85;1.80;;;;;;;3.90;100.00;100103.13;4909981;29;20061;-77
2021/01/13 09:37:29;;;;;;;11.02;2.30;;;;;;;3.85;100.00;100106.00;4912262;29;20493;-76
2021/01/13 09:40:22;;;;;;;12.75;2.10;;;;;;;3.93;100.00;100093.72;4927351;29;20162;-77
2021/01/13 09:42:57;;;;;;;8.93;2.00;;;;;;;3.98;100.00;100085.53;4885704;29;20044;-77
2021/01/13 09:45:36;;;;;;;10.00;2.10;;;;;;;3.94;100.00;100087.28;4887930;29;20063;-76
2021/01/13 09:48:17;;;;;;;9.18;2.05;;;;;;;4.01;100.00;100082.22;4891335;29;20506;-77
2021/01/13 09:50:43;;;;;;;9.48;2.33;;;;;;;4.00;100.00;100075.34;4873264;29;20139;-76
2021/01/13 09:53:13;;;;;;;13.55;2.97;;;;;;;4.04;100.00;100060.28;4874811;29;20029;-76
2021/01/13 09:55:38;;;;;;;7.85;2.60;;;;;;;4.06;100.00;100066.84;4889957;29;20052;-77
2021/01/13 09:58:25;;;;;;;10.52;2.10;;;;;;;4.12;100.00;100062.09;4863637;29;20166;-77
2021/01/13 10:00:55;;;;;;;7.47;2.20;;;;;;;4.05;100.00;100064.47;4890862;29;20104;-77
2021/01/13 10:03:29;;;;;;;10.27;2.17;;;;;;;4.07;100.00;100059.59;4875180;29;20082;-77
2021/01/13 10:05:55;;;;;;;7.63;2.25;;;;;;;4.16;100.00;100044.34;4890454;29;20091;-76
2021/01/13 10:08:29;;;;;;;10.15;2.22;;;;;;;4.43;100.00;100062.44;4884068;29;20467;-77
2021/01/13 10:10:56;;;;;;;10.55;2.13;;;;;;;4.40;100.00;100060.41;4892948;29;20625;-76
2021/01/13 10:13:22;;;;;;;15.57;2.72;;;;;;;4.40;100.00;100052.41;4858582;29;20051;-77
2021/01/13 10:15:49;;;;;;;14.75;2.20;;;;;;;4.47;100.00;100047.34;4885067;29;20036;-77
2021/01/13 10:18:15;;;;;;;11.68;2.47;;;;;;;4.35;100.00;100028.66;4868867;29;20044;-76
2021/01/13 10:21:01;;;;;;;9.15;2.78;;;;;;;4.44;100.00;100032.78;4907206;29;20465;-77
2021/01/13 10:23:29;;;;;;;20.52;2.28;;;;;;;4.50;100.00;100020.03;4905373;29;20043;-77
2021/01/13 10:26:06;;;;;;;8.25;2.15;;;;;;;4.46;100.00;100019.91;4926525;29;20083;-76
2021/01/13 10:28:33;;;;;;;9.98;1.92;;;;;;;4.45;100.00;100023.66;4937982;29;20056;-77
2021/01/13 10:31:00;;;;;;;12.00;1.90;;;;;;;4.45;100.00;100017.59;4921349;29;20032;-77
2021/01/13 10:33:47;;;;;;;17.33;2.75;;;;;;;4.48;100.00;100016.91;4915739;29;20043;-76
2021/01/13 10:36:29;;;;;;;9.32;2.10;;;;;;;4.53;100.00;100011.34;4903699;29;20038;-77
2021/01/13 10:38:54;;;;;;;9.80;2.20;;;;;;;4.59;100.00;100018.03;4907255;29;20055;-76
2021/01/13 10:41:31;;;;;;;9.40;2.22;;;;;;;4.70;100.00;100019.19;4931311;29;20045;-76
2021/01/13 10:44:04;;;;;;;12.82;2.30;;;;;;;4.66;100.00;100020.97;4924820;29;20054;-76
2021/01/13 10:46:44;;;;;;;11.30;2.13;;;;;;;4.72;100.00;100022.31;4911680;29;20489;-77
2021/01/13 10:49:19;;;;;;;12.77;2.05;;;;;;;4.73;100.00;100018.53;4918084;29;20046;-76
2021/01/13 10:51:51;;;;;;;9.15;2.17;;;;;;;4.70;100.00;100029.84;4916908;29;20036;-76
2021/01/13 10:54:19;;;;;;;16.83;2.15;;;;;;;4.71;100.00;100014.63;4930807;29;20633;-76
2021/01/13 10:56:46;;;;;;;8.15;1.80;;;;;;;4.74;100.00;100006.75;4931461;29;20047;-76
2021/01/13 10:59:16;;;;;;;11.73;2.13;;;;;;;4.56;100.00;99997.38;4928728;29;20040;-76
2021/01/13 11:01:50;;;;;;;16.85;1.67;;;;;;;4.59;100.00;99988.72;4896080;29;20176;-77
2021/01/13 11:04:21;;;;;;;9.00;1.65;;;;;;;4.63;100.00;99996.84;4911067;29;20032;-76
2021/01/13 11:06:47;;;;;;;10.18;1.73;;;;;;;4.63;100.00;99978.19;4915979;29;20166;-77
2021/01/13 11:09:16;;;;;;;14.43;2.13;;;;;;;4.65;100.00;99990.06;4902155;29;20049;-77
2021/01/13 11:11:47;;;;;;;10.95;1.88;;;;;;;4.57;100.00;99973.06;4913653;29;20168;-77
2021/01/13 11:14:12;;;;;;;9.82;1.88;;;;;;;4.66;100.00;99970.31;4904381;29;20040;-76
2021/01/13 11:17:18;;;;;;;10.15;2.10;;;;;;;4.78;100.00;99964.97;4897718;29;20099;-77
2021/01/13 11:19:46;;;;;;;13.95;1.98;;;;;;;4.87;100.00;99959.53;4914297;29;20421;-76
2021/01/13 11:22:13;;;;;;;6.25;1.73;;;;;;;4.84;100.00;99947.63;4906436;29;20450;-76
2021/01/13 11:24:40;;;;;;;12.77;2.03;;;;;;;4.88;100.00;99945.09;4887253;29;20048;-76
2021/01/13 11:27:21;;;;;;;9.95;1.73;;;;;;;4.95;100.00;99929.31;4906148;29;20635;-75
2021/01/13 11:29:52;;;;;;;11.48;1.50;;;;;;;4.95;100.00;99935.41;4918217;29;20036;-76
2021/01/13 11:32:19;;;;;;;11.52;2.15;;;;;;;5.05;100.00;99934.94;4912066;29;20040;-76
2021/01/13 11:34:55;;;;;;;9.48;1.42;;;;;;;5.03;100.00;99936.41;4895098;29;20028;-76
2021/01/13 11:37:32;;;;;;;12.45;1.42;;;;;;;5.06;100.00;99928.50;4915503;29;20056;-76
2021/01/13 11:40:17;;;;;;;8.68;1.70;;;;;;;5.02;100.00;99913.50;4919657;29;20695;-76
2021/01/13 11:43:29;;;;;;;8.40;1.70;;;;;;;5.04;100.00;99897.94;4907861;29;20420;-76
2021/01/13 11:46:30;;;;;;;18.35;1.90;;;;;;;5.03;100.00;99885.72;4897309;29;20048;-76
2021/01/13 11:49:14;;;;;;;9.27;1.67;;;;;;;5.11;100.00;99879.50;4891699;29;20167;-76